createdAt,value
2023-02-16T00:00:19.087Z,101769.17
2023-02-16T00:02:47.729Z,101774.11
2023-02-16T00:05:24.964Z,101773.91
2023-02-16T00:08:03.519Z,101779.17
2023-02-16T00:10:36.631Z,101782.90
2023-02-16T00:13:42.069Z,101784.57
2023-02-16T00:16:23.084Z,101785.02
2023-02-16T00:18:50.192Z,101784.79
2023-02-16T00:21:18.504Z,101792.13
2023-02-16T00:23:47.178Z,101793.66
2023-02-16T00:26:22.961Z,101792.11
2023-02-16T00:28:55.156Z,101794.85
2023-02-16T00:31:28.056Z,101794.50
2023-02-16T00:33:57.209Z,101797.91
2023-02-16T00:36:25.714Z,101797.89
2023-02-16T00:38:53.125Z,101799.02
2023-02-16T00:41:41.345Z,101798.42
2023-02-16T00:44:16.139Z,101794.40
2023-02-16T00:46:44.725Z,101797.95
2023-02-16T00:49:19.450Z,101797.73
2023-02-16T00:51:48.977Z,101798.02
2023-02-16T00:54:15.894Z,101796.30
2023-02-16T00:56:43.008Z,101795.56
2023-02-16T00:59:15.673Z,101796.04
2023-02-16T01:01:42.555Z,101796.86
2023-02-16T01:04:13.533Z,101793.77
2023-02-16T01:06:59.250Z,101792.91
2023-02-16T01:09:46.665Z,101792.94
2023-02-16T01:12:16.870Z,101796.70
2023-02-16T01:14:47.572Z,101793.23
2023-02-16T01:17:14.957Z,101789.92
2023-02-16T01:19:44.539Z,101790.52
2023-02-16T01:22:11.834Z,101792.84
2023-02-16T01:24:42.456Z,101792.06
2023-02-16T01:27:13.286Z,101789.93
2023-02-16T01:29:40.345Z,101792.64
2023-02-16T01:32:11.839Z,101787.70
2023-02-16T01:34:38.954Z,101791.15
2023-02-16T01:37:06.072Z,101790.84
2023-02-16T01:39:33.515Z,101788.42
2023-02-16T01:42:25.870Z,101788.60
2023-02-16T01:45:00.439Z,101791.51
2023-02-16T01:47:50.056Z,101789.14
2023-02-16T01:50:23.211Z,101797.34
2023-02-16T01:52:55.142Z,101798.35
2023-02-16T01:55:29.452Z,101801.44
2023-02-16T01:57:58.782Z,101803.65
2023-02-16T02:00:33.046Z,101801.21
2023-02-16T02:03:20.502Z,101810.83
2023-02-16T02:05:48.153Z,101809.86
2023-02-16T02:08:38.430Z,101813.15
2023-02-16T02:11:32.520Z,101815.42
2023-02-16T02:14:11.346Z,101819.05
2023-02-16T02:16:40.332Z,101819.06
2023-02-16T02:19:07.223Z,101820.42
2023-02-16T02:22:15.061Z,101819.86
2023-02-16T02:25:08.669Z,101818.25
2023-02-16T02:27:55.838Z,101822.80
2023-02-16T02:30:26.070Z,101821.58
2023-02-16T02:33:10.625Z,101820.66
2023-02-16T02:36:09.951Z,101821.45
2023-02-16T02:38:50.527Z,101825.73
2023-02-16T02:41:47.438Z,101829.83
2023-02-16T02:44:17.451Z,101835.69
2023-02-16T02:46:46.653Z,101840.61
2023-02-16T02:49:14.829Z,101847.29
2023-02-16T02:51:42.958Z,101850.69
2023-02-16T02:54:34.737Z,101848.04
2023-02-16T02:57:29.711Z,101845.85
2023-02-16T03:00:17.508Z,101840.07
2023-02-16T03:02:45.213Z,101838.95
2023-02-16T03:05:12.115Z,101839.06
2023-02-16T03:07:47.734Z,101843.35
2023-02-16T03:10:37.489Z,101844.00
2023-02-16T03:13:06.897Z,101843.71
2023-02-16T03:15:33.827Z,101847.17
2023-02-16T03:18:19.529Z,101847.85
2023-02-16T03:21:06.134Z,101850.55
2023-02-16T03:23:53.149Z,101850.16
2023-02-16T03:26:38.828Z,101853.48
2023-02-16T03:29:18.377Z,101853.69
2023-02-16T03:31:46.415Z,101848.15
2023-02-16T03:34:14.384Z,101843.98
2023-02-16T03:36:44.502Z,101843.93
2023-02-16T03:39:13.129Z,101842.73
2023-02-16T03:41:43.338Z,101846.14
2023-02-16T03:44:10.337Z,101845.63
2023-02-16T03:46:40.482Z,101847.68
2023-02-16T03:49:07.808Z,101848.51
2023-02-16T03:51:37.127Z,101850.65
2023-02-16T03:54:04.084Z,101852.09
2023-02-16T03:56:32.907Z,101853.76
2023-02-16T03:59:00.603Z,101859.34
2023-02-16T04:01:27.622Z,101863.08
2023-02-16T04:03:54.730Z,101869.73
2023-02-16T04:06:22.015Z,101877.79
2023-02-16T04:08:50.392Z,101875.61
2023-02-16T04:11:37.038Z,101883.36
2023-02-16T04:14:24.320Z,101886.78
2023-02-16T04:16:55.782Z,101891.70
2023-02-16T04:19:25.642Z,101892.14
2023-02-16T04:21:52.601Z,101896.16
2023-02-16T04:24:20.403Z,101899.44
2023-02-16T04:26:49.025Z,101899.67
2023-02-16T04:29:16.661Z,101899.06
2023-02-16T04:31:43.516Z,101902.08
2023-02-16T04:34:11.540Z,101901.54
2023-02-16T04:36:40.560Z,101903.27
2023-02-16T04:39:07.504Z,101900.08
2023-02-16T04:41:35.204Z,101907.86
2023-02-16T04:44:02.819Z,101902.30
2023-02-16T04:46:30.089Z,101903.68
2023-02-16T04:48:58.285Z,101900.58
2023-02-16T04:51:25.244Z,101904.30
2023-02-16T04:53:53.163Z,101905.93
2023-02-16T04:56:22.971Z,101907.05
2023-02-16T04:58:55.757Z,101903.93
2023-02-16T05:01:24.264Z,101903.33
2023-02-16T05:03:51.656Z,101900.35
2023-02-16T05:06:20.157Z,101902.23
2023-02-16T05:08:48.550Z,101901.06
2023-02-16T05:11:35.741Z,101905.58
2023-02-16T05:14:23.835Z,101909.08
2023-02-16T05:16:50.810Z,101911.16
2023-02-16T05:19:21.428Z,101913.23
2023-02-16T05:21:49.990Z,101912.72
2023-02-16T05:24:17.773Z,101911.52
2023-02-16T05:26:44.759Z,101914.58
2023-02-16T05:29:13.480Z,101910.51
2023-02-16T05:31:43.722Z,101914.48
2023-02-16T05:34:10.878Z,101915.58
2023-02-16T05:36:38.038Z,101916.20
2023-02-16T05:39:05.284Z,101913.71
2023-02-16T05:41:32.423Z,101911.78
2023-02-16T05:44:00.914Z,101913.29
2023-02-16T05:46:32.284Z,101915.48
2023-02-16T05:48:59.565Z,101918.80
2023-02-16T05:51:26.978Z,101924.31
2023-02-16T05:53:54.099Z,101925.60
2023-02-16T05:56:22.520Z,101924.77
2023-02-16T05:58:50.001Z,101923.74
2023-02-16T06:01:17.431Z,101925.63
2023-02-16T06:03:44.599Z,101928.98
2023-02-16T06:06:11.974Z,101933.27
2023-02-16T06:08:39.670Z,101933.10
2023-02-16T06:11:26.920Z,101934.20
2023-02-16T06:13:59.024Z,101926.59
2023-02-16T06:16:28.471Z,101930.75
2023-02-16T06:18:58.303Z,101934.74
2023-02-16T06:21:25.759Z,101939.23
2023-02-16T06:23:53.635Z,101943.77
2023-02-16T06:26:21.597Z,101948.00
2023-02-16T06:28:48.848Z,101951.80
2023-02-16T06:31:16.306Z,101949.54
2023-02-16T06:33:48.238Z,101947.06
2023-02-16T06:36:21.883Z,101946.77
2023-02-16T06:38:56.662Z,101950.62
2023-02-16T06:41:40.011Z,101945.48
2023-02-16T06:44:13.821Z,101946.17
2023-02-16T06:46:45.929Z,101944.67
2023-02-16T06:49:18.783Z,101948.41
2023-02-16T06:51:48.182Z,101942.94
2023-02-16T06:54:15.801Z,101947.24
2023-02-16T06:56:44.055Z,101945.63
2023-02-16T06:59:12.648Z,101940.48
2023-02-16T07:01:45.679Z,101943.13
2023-02-16T07:04:13.280Z,101942.04
2023-02-16T07:06:42.233Z,101940.02
2023-02-16T07:09:13.919Z,101943.95
2023-02-16T07:11:41.320Z,101940.60
2023-02-16T07:14:13.527Z,101938.45
2023-02-16T07:16:42.330Z,101939.70
2023-02-16T07:19:09.868Z,101938.34
2023-02-16T07:21:39.863Z,101936.79
2023-02-16T07:25:57.208Z,101934.02
2023-02-16T07:28:26.065Z,101932.09
2023-02-16T07:30:53.851Z,101937.41
2023-02-16T07:33:25.017Z,101933.59
2023-02-16T07:35:52.331Z,101932.53
2023-02-16T07:38:20.205Z,101925.98
2023-02-16T07:40:47.266Z,101922.67
2023-02-16T07:43:15.748Z,101921.27
2023-02-16T07:45:46.045Z,101918.46
2023-02-16T07:48:24.555Z,101915.34
2023-02-16T07:50:51.544Z,101910.15
2023-02-16T07:53:18.486Z,101913.75
2023-02-16T07:55:46.774Z,101915.13
2023-02-16T07:58:27.425Z,101909.96
2023-02-16T08:01:10.354Z,101911.85
2023-02-16T08:03:50.043Z,101913.88
2023-02-16T08:06:20.162Z,101912.66
2023-02-16T08:08:47.256Z,101911.63
2023-02-16T08:11:20.915Z,101911.79
2023-02-16T08:13:49.648Z,101906.99
2023-02-16T08:16:19.547Z,101910.95
2023-02-16T08:18:50.202Z,101910.73
2023-02-16T08:21:20.475Z,101908.84
2023-02-16T08:23:54.535Z,101905.91
2023-02-16T08:26:23.368Z,101908.14
2023-02-16T08:28:50.831Z,101907.13
2023-02-16T08:31:25.497Z,101900.09
2023-02-16T08:33:56.596Z,101906.80
2023-02-16T08:36:26.021Z,101906.66
2023-02-16T08:38:56.077Z,101905.84
2023-02-16T08:41:38.709Z,101904.52
2023-02-16T08:44:15.594Z,101900.66
2023-02-16T08:46:45.533Z,101901.27
2023-02-16T08:49:13.209Z,101905.39
2023-02-16T08:51:44.676Z,101907.00
2023-02-16T08:54:21.136Z,101908.33
2023-02-16T08:56:50.644Z,101909.35
2023-02-16T08:59:19.362Z,101905.59
2023-02-16T09:02:33.473Z,101901.55
2023-02-16T09:05:00.783Z,101904.77
2023-02-16T09:11:55.715Z,101896.35
2023-02-16T09:14:23.828Z,101899.20
2023-02-16T09:16:52.573Z,101889.55
2023-02-16T09:19:20.652Z,101892.63
2023-02-16T09:21:50.215Z,101889.46
2023-02-16T09:24:22.506Z,101885.73
2023-02-16T09:27:07.463Z,101887.38
2023-02-16T09:29:40.041Z,101890.42
2023-02-16T09:32:08.834Z,101887.88
2023-02-16T09:34:51.987Z,101878.77
2023-02-16T09:38:38.840Z,101881.35
2023-02-16T09:41:07.943Z,101872.25
2023-02-16T09:43:48.687Z,101869.53
2023-02-16T09:46:22.156Z,101872.42
2023-02-16T09:48:50.074Z,101873.98
2023-02-16T09:51:41.227Z,101879.29
2023-02-16T09:54:23.106Z,101872.90
2023-02-16T10:00:51.085Z,101860.09
2023-02-16T10:03:45.965Z,101868.98
2023-02-16T10:06:15.843Z,101866.19
2023-02-16T10:08:50.070Z,101870.98
2023-02-16T10:11:37.937Z,101864.69
2023-02-16T10:14:12.357Z,101859.89
2023-02-16T10:16:57.332Z,101858.92
2023-02-16T10:19:33.542Z,101855.15
2023-02-16T10:22:03.009Z,101860.05
2023-02-16T10:24:31.234Z,101862.35
2023-02-16T10:27:03.756Z,101865.59
2023-02-16T10:29:30.874Z,101863.68
2023-02-16T10:32:26.260Z,101861.73
2023-02-16T10:35:10.749Z,101857.90
2023-02-16T10:37:57.484Z,101854.04
2023-02-16T10:40:43.731Z,101851.11
2023-02-16T10:43:21.337Z,101846.25
2023-02-16T10:45:53.758Z,101849.82
2023-02-16T10:48:21.376Z,101847.27
2023-02-16T10:51:02.716Z,101856.50
2023-02-16T10:54:19.145Z,101855.38
2023-02-16T10:56:53.699Z,101849.44
2023-02-16T10:59:21.741Z,101850.14
2023-02-16T11:01:54.606Z,101848.38
2023-02-16T11:04:41.374Z,101843.84
2023-02-16T11:07:17.794Z,101839.55
2023-02-16T11:09:46.896Z,101834.45
2023-02-16T11:12:17.263Z,101834.60
2023-02-16T11:15:16.090Z,101833.23
2023-02-16T11:17:52.215Z,101838.94
2023-02-16T11:20:41.776Z,101836.71
2023-02-16T11:23:23.505Z,101834.73
2023-02-16T11:26:14.329Z,101832.30
2023-02-16T11:28:46.080Z,101839.52
2023-02-16T11:31:22.017Z,101835.73
2023-02-16T11:34:31.302Z,101838.14
2023-02-16T11:37:18.139Z,101842.61
2023-02-16T11:40:15.390Z,101845.40
2023-02-16T11:42:57.813Z,101844.23
2023-02-16T11:45:33.652Z,101845.04
2023-02-16T11:51:04.129Z,101842.28
2023-02-16T11:53:33.578Z,101838.63
2023-02-16T11:56:27.309Z,101834.17
2023-02-16T11:59:06.957Z,101831.64
2023-02-16T12:01:43.671Z,101832.86
2023-02-16T12:04:29.684Z,101837.71
2023-02-16T12:07:22.658Z,101835.34
2023-02-16T12:10:08.099Z,101838.33
2023-02-16T12:13:03.166Z,101829.85
2023-02-16T12:16:31.679Z,101828.86
2023-02-16T12:19:34.046Z,101822.80
2023-02-16T12:22:39.908Z,101822.11
2023-02-16T12:25:37.547Z,101820.44
2023-02-16T12:28:20.177Z,101817.75
2023-02-16T12:31:17.444Z,101815.38
2023-02-16T12:34:03.507Z,101814.20
2023-02-16T12:36:43.972Z,101813.02
2023-02-16T12:39:33.937Z,101811.85
2023-02-16T12:42:27.778Z,101816.58
2023-02-16T12:44:57.002Z,101811.98
2023-02-16T12:47:29.953Z,101813.54
2023-02-16T12:50:28.512Z,101814.72
2023-02-16T12:53:20.080Z,101814.73
2023-02-16T12:55:50.693Z,101812.25
2023-02-16T12:58:23.827Z,101807.02
2023-02-16T13:00:59.599Z,101801.58
2023-02-16T13:07:35.221Z,101802.77
2023-02-16T13:10:45.265Z,101799.71
2023-02-16T13:13:21.313Z,101796.64
2023-02-16T13:16:23.921Z,101790.00
2023-02-16T13:18:56.719Z,101792.31
2023-02-16T13:21:50.850Z,101793.39
2023-02-16T13:24:40.647Z,101792.41
2023-02-16T13:27:49.090Z,101797.81
2023-02-16T13:30:22.425Z,101800.46
2023-02-16T13:33:02.069Z,101802.08
2023-02-16T13:35:45.919Z,101797.30
2023-02-16T13:38:29.648Z,101800.65
2023-02-16T13:41:09.930Z,101800.70
2023-02-16T13:43:47.072Z,101796.42
2023-02-16T13:49:44.682Z,101789.17
2023-02-16T13:52:49.744Z,101791.48
2023-02-16T13:55:25.541Z,101792.80
2023-02-16T13:57:54.032Z,101788.97
2023-02-16T14:00:42.476Z,101787.77
2023-02-16T14:03:20.792Z,101788.67
2023-02-16T14:05:55.689Z,101786.08
2023-02-16T14:08:30.215Z,101787.95
2023-02-16T14:11:03.622Z,101788.27
2023-02-16T14:13:35.224Z,101791.88
2023-02-16T14:19:05.107Z,101781.58
2023-02-16T14:21:52.844Z,101769.23
2023-02-16T14:24:33.222Z,101764.09
2023-02-16T14:27:06.460Z,101758.79
2023-02-16T14:29:53.756Z,101754.34
2023-02-16T14:32:34.087Z,101753.54
2023-02-16T14:35:07.886Z,101753.59
2023-02-16T14:38:15.794Z,101752.92
2023-02-16T14:40:51.763Z,101755.55
2023-02-16T14:43:23.366Z,101755.59
2023-02-16T14:46:02.500Z,101754.58
2023-02-16T14:48:50.288Z,101755.48
2023-02-16T14:51:36.029Z,101755.52
2023-02-16T14:54:20.535Z,101757.29
2023-02-16T14:56:50.652Z,101757.83
2023-02-16T14:59:42.490Z,101756.46
2023-02-16T15:02:37.665Z,101758.20
2023-02-16T15:05:18.540Z,101759.61
2023-02-16T15:08:02.611Z,101758.41
2023-02-16T15:10:32.286Z,101766.35
2023-02-16T15:12:59.680Z,101768.77
2023-02-16T15:15:48.219Z,101768.95
2023-02-16T15:18:19.199Z,101773.08
2023-02-16T15:20:48.146Z,101771.35
2023-02-16T15:23:22.584Z,101771.88
2023-02-16T15:25:54.452Z,101769.30
2023-02-16T15:28:25.725Z,101766.88
2023-02-16T15:30:57.299Z,101766.03
2023-02-16T15:33:24.316Z,101770.66
2023-02-16T15:36:20.811Z,101771.02
2023-02-16T15:38:52.871Z,101767.56
2023-02-16T15:41:40.522Z,101765.16
2023-02-16T15:44:34.156Z,101762.21
2023-02-16T15:47:30.651Z,101765.30
2023-02-16T15:50:32.360Z,101756.87
2023-02-16T15:52:59.645Z,101758.23
2023-02-16T15:55:28.102Z,101760.80
2023-02-16T15:57:57.321Z,101757.21
2023-02-16T16:00:26.163Z,101757.03
2023-02-16T16:03:01.052Z,101757.71
2023-02-16T16:05:45.686Z,101755.31
2023-02-16T16:08:14.033Z,101755.99
2023-02-16T16:10:42.176Z,101754.98
2023-02-16T16:13:18.397Z,101757.04
2023-02-16T16:15:48.082Z,101758.42
2023-02-16T16:18:39.115Z,101757.05
2023-02-16T16:21:28.744Z,101757.39
2023-02-16T16:24:08.345Z,101758.95
2023-02-16T16:26:50.971Z,101755.85
2023-02-16T16:29:46.034Z,101754.47
2023-02-16T16:32:19.141Z,101749.30
2023-02-16T16:34:55.602Z,101750.86
2023-02-16T16:37:36.760Z,101753.45
2023-02-16T16:40:22.006Z,101750.02
2023-02-16T16:43:06.254Z,101743.98
2023-02-16T16:45:37.855Z,101743.47
2023-02-16T16:48:09.943Z,101742.63
2023-02-16T16:50:39.868Z,101744.33
2023-02-16T16:53:29.722Z,101743.83
2023-02-16T16:56:20.917Z,101746.39
2023-02-16T16:58:51.038Z,101744.16
2023-02-16T17:01:21.022Z,101750.01
2023-02-16T17:03:49.073Z,101751.39
2023-02-16T17:06:17.932Z,101751.22
2023-02-16T17:08:45.153Z,101745.71
2023-02-16T17:11:28.598Z,101749.15
2023-02-16T17:13:56.569Z,101748.81
2023-02-16T17:16:29.957Z,101751.38
2023-02-16T17:18:57.334Z,101747.61
2023-02-16T17:21:24.736Z,101745.70
2023-02-16T17:23:53.887Z,101743.13
2023-02-16T17:26:22.612Z,101740.38
2023-02-16T17:28:50.302Z,101736.94
2023-02-16T17:31:18.445Z,101731.95
2023-02-16T17:33:47.731Z,101739.70
2023-02-16T17:36:19.576Z,101742.27
2023-02-16T17:38:53.774Z,101739.86
2023-02-16T17:41:23.130Z,101739.70
2023-02-16T17:43:51.588Z,101737.98
2023-02-16T17:50:27.504Z,101736.96
2023-02-16T17:52:57.322Z,101733.52
2023-02-16T17:55:25.480Z,101731.27
2023-02-16T17:58:20.867Z,101730.93
2023-02-16T18:00:58.534Z,101734.70
2023-02-16T18:03:25.999Z,101731.08
2023-02-16T18:10:37.824Z,101726.98
2023-02-16T18:13:06.121Z,101724.04
2023-02-16T18:15:34.073Z,101720.60
2023-02-16T18:18:04.235Z,101720.79
2023-02-16T18:20:31.859Z,101723.19
2023-02-16T18:23:00.498Z,101727.32
2023-02-16T18:25:28.122Z,101720.95
2023-02-16T18:27:56.565Z,101712.02
2023-02-16T18:30:24.633Z,101711.48
2023-02-16T18:32:56.268Z,101713.03
2023-02-16T18:35:23.654Z,101714.25
2023-02-16T18:37:52.553Z,101711.15
2023-02-16T18:40:33.484Z,101708.91
2023-02-16T18:43:00.605Z,101704.61
2023-02-16T18:45:28.052Z,101703.41
2023-02-16T18:47:56.715Z,101700.13
2023-02-16T18:50:24.813Z,101699.63
2023-02-16T18:52:55.303Z,101700.14
2023-02-16T18:55:22.942Z,101698.59
2023-02-16T18:57:51.392Z,101696.34
2023-02-16T19:00:21.320Z,101694.46
2023-02-16T19:02:58.497Z,101695.33
2023-02-16T19:05:34.975Z,101695.84
2023-02-16T19:08:07.796Z,101697.90
2023-02-16T19:10:35.944Z,101696.71
2023-02-16T19:13:09.994Z,101695.16
2023-02-16T19:15:56.681Z,101698.25
2023-02-16T19:18:28.700Z,101695.14
2023-02-16T19:21:10.288Z,101694.97
2023-02-16T19:23:38.218Z,101688.79
2023-02-16T19:26:10.748Z,101685.34
2023-02-16T19:28:42.557Z,101688.61
2023-02-16T19:31:19.331Z,101689.64
2023-02-16T19:33:46.653Z,101684.30
2023-02-16T19:36:14.136Z,101682.25
2023-02-16T19:38:44.010Z,101682.06
2023-02-16T19:43:01.767Z,101678.80
2023-02-16T19:45:37.038Z,101679.84
2023-02-16T19:48:06.765Z,101682.93
2023-02-16T19:50:35.373Z,101680.52
2023-02-16T19:53:02.562Z,101686.38
2023-02-16T19:55:32.575Z,101687.25
2023-02-16T19:58:00.362Z,101680.54
2023-02-16T20:00:29.539Z,101685.19
2023-02-16T20:02:56.701Z,101680.20
2023-02-16T20:05:23.751Z,101674.52
2023-02-16T20:07:53.232Z,101678.63
2023-02-16T20:10:21.917Z,101676.56
2023-02-16T20:12:49.358Z,101679.31
2023-02-16T20:15:25.351Z,101673.30
2023-02-16T20:17:55.841Z,101676.91
2023-02-16T20:20:35.210Z,101671.74
2023-02-16T20:23:05.451Z,101668.13
2023-02-16T20:25:34.198Z,101663.84
2023-02-16T20:28:02.687Z,101664.52
2023-02-16T20:30:30.295Z,101667.79
2023-02-16T20:32:58.622Z,101661.93
2023-02-16T20:35:25.827Z,101663.31
2023-02-16T20:37:54.254Z,101664.69
2023-02-16T20:40:24.598Z,101663.84
2023-02-16T20:42:51.844Z,101668.14
2023-02-16T20:45:21.991Z,101667.79
2023-02-16T20:47:52.539Z,101668.30
2023-02-16T20:50:19.949Z,101668.14
2023-02-16T20:52:47.197Z,101664.17
2023-02-16T20:55:15.314Z,101660.74
2023-02-16T20:57:42.407Z,101659.88
2023-02-16T21:00:15.496Z,101659.52
2023-02-16T21:02:42.644Z,101661.07
2023-02-16T21:05:10.336Z,101659.87
2023-02-16T21:07:38.801Z,101651.27
2023-02-16T21:10:10.349Z,101651.63
2023-02-16T21:12:37.429Z,101651.09
2023-02-16T21:15:05.077Z,101654.19
2023-02-16T21:17:32.201Z,101651.27
2023-02-16T21:19:59.165Z,101650.23
2023-02-16T21:22:26.044Z,101650.24
2023-02-16T21:24:53.917Z,101648.87
2023-02-16T21:27:21.092Z,101651.98
2023-02-16T21:29:48.162Z,101652.15
2023-02-16T21:32:15.202Z,101656.27
2023-02-16T21:34:43.862Z,101657.30
2023-02-16T21:37:10.771Z,101658.15
2023-02-16T21:39:58.879Z,101658.65
2023-02-16T21:42:25.757Z,101662.78
2023-02-16T21:45:11.907Z,101658.83
2023-02-16T21:47:59.454Z,101659.02
2023-02-16T21:50:28.009Z,101658.66
2023-02-16T21:52:55.396Z,101657.98
2023-02-16T21:55:41.291Z,101651.63
2023-02-16T21:58:10.220Z,101650.09
2023-02-16T22:00:39.549Z,101645.10
2023-02-16T22:03:08.027Z,101641.49
2023-02-16T22:05:35.700Z,101647.33
2023-02-16T22:08:02.928Z,101645.27
2023-02-16T22:10:29.952Z,101643.22
2023-02-16T22:12:57.070Z,101645.27
2023-02-16T22:15:34.918Z,101642.36
2023-02-16T22:18:05.947Z,101638.76
2023-02-16T22:20:35.425Z,101633.25
2023-02-16T22:23:03.379Z,101629.30
2023-02-16T22:25:30.293Z,101629.64
2023-02-16T22:27:59.081Z,101626.89
2023-02-16T22:30:26.157Z,101619.69
2023-02-16T22:32:57.246Z,101614.67
2023-02-16T22:35:24.500Z,101615.20
2023-02-16T22:37:51.516Z,101609.71
2023-02-16T22:40:18.570Z,101607.64
2023-02-16T22:42:45.455Z,101603.17
2023-02-16T22:45:12.718Z,101602.99
2023-02-16T22:47:40.071Z,101601.11
2023-02-16T22:50:07.586Z,101600.07
2023-02-16T22:52:36.574Z,101598.70
2023-02-16T22:55:05.190Z,101596.81
2023-02-16T22:57:39.940Z,101598.89
2023-02-16T23:00:08.390Z,101596.48
2023-02-16T23:02:39.182Z,101594.59
2023-02-16T23:05:08.044Z,101594.24
2023-02-16T23:07:35.773Z,101592.87
2023-02-16T23:10:07.453Z,101589.77
2023-02-16T23:12:34.749Z,101588.05
2023-02-16T23:15:01.645Z,101588.23
2023-02-16T23:17:29.054Z,101584.95
2023-02-16T23:19:58.312Z,101586.52
2023-02-16T23:22:26.383Z,101584.09
2023-02-16T23:25:13.344Z,101580.85
2023-02-16T23:27:40.884Z,101579.30
2023-02-16T23:30:08.338Z,101581.87
2023-02-16T23:32:36.494Z,101587.38
2023-02-16T23:35:04.137Z,101582.04
2023-02-16T23:37:33.568Z,101580.15
2023-02-16T23:40:00.482Z,101580.66
2023-02-16T23:42:28.082Z,101577.92
2023-02-16T23:44:55.451Z,101579.45
2023-02-16T23:47:23.326Z,101580.15
2023-02-16T23:49:50.405Z,101576.55
2023-02-16T23:52:18.220Z,101574.83
2023-02-16T23:54:45.090Z,101576.71
2023-02-16T23:57:12.598Z,101574.48
2023-02-16T23:59:39.902Z,101567.41
